sensor_id;sensor_type;location;lat;lon;timestamp;temperature;humidity
19258;DHT22;9763;48.780;9.212;2024-02-28T00:02:34;11.90;71.10
19258;DHT22;9763;48.780;9.212;2024-02-28T00:05:57;11.90;71.10
19258;DHT22;9763;48.780;9.212;2024-02-28T00:09:21;12.20;71.40
19258;DHT22;9763;48.780;9.212;2024-02-28T00:12:45;11.90;71.10
19258;DHT22;9763;48.780;9.212;2024-02-28T00:16:10;11.90;71.10
19258;DHT22;9763;48.780;9.212;2024-02-28T00:19:33;11.90;71.00
19258;DHT22;9763;48.780;9.212;2024-02-28T00:22:57;11.90;71.10
19258;DHT22;9763;48.780;9.212;2024-02-28T00:26:21;11.90;71.20
19258;DHT22;9763;48.780;9.212;2024-02-28T00:29:44;11.80;71.10
19258;DHT22;9763;48.780;9.212;2024-02-28T00:33:10;11.80;71.00
19258;DHT22;9763;48.780;9.212;2024-02-28T00:36:33;11.80;71.40
19258;DHT22;9763;48.780;9.212;2024-02-28T00:40:13;11.80;71.20
19258;DHT22;9763;48.780;9.212;2024-02-28T00:43:36;11.70;71.20
19258;DHT22;9763;48.780;9.212;2024-02-28T00:47:01;11.70;71.30
19258;DHT22;9763;48.780;9.212;2024-02-28T00:50:26;11.70;71.30
19258;DHT22;9763;48.780;9.212;2024-02-28T00:53:50;11.80;71.40
19258;DHT22;9763;48.780;9.212;2024-02-28T00:57:13;11.80;71.50
19258;DHT22;9763;48.780;9.212;2024-02-28T01:00:38;11.80;71.40
19258;DHT22;9763;48.780;9.212;2024-02-28T01:04:02;11.70;71.30
19258;DHT22;9763;48.780;9.212;2024-02-28T01:07:27;11.80;71.40
19258;DHT22;9763;48.780;9.212;2024-02-28T01:10:51;11.80;71.30
19258;DHT22;9763;48.780;9.212;2024-02-28T01:14:14;11.70;71.20
19258;DHT22;9763;48.780;9.212;2024-02-28T01:17:38;11.70;71.10
19258;DHT22;9763;48.780;9.212;2024-02-28T01:21:02;11.80;71.20
19258;DHT22;9763;48.780;9.212;2024-02-28T01:24:27;11.80;71.20
19258;DHT22;9763;48.780;9.212;2024-02-28T01:27:51;11.70;71.00
19258;DHT22;9763;48.780;9.212;2024-02-28T01:31:15;11.70;71.20
19258;DHT22;9763;48.780;9.212;2024-02-28T01:34:39;11.70;71.20
19258;DHT22;9763;48.780;9.212;2024-02-28T01:38:02;11.70;71.10
19258;DHT22;9763;48.780;9.212;2024-02-28T01:41:28;11.70;71.10
19258;DHT22;9763;48.780;9.212;2024-02-28T01:44:51;11.70;71.00
19258;DHT22;9763;48.780;9.212;2024-02-28T01:48:15;11.70;71.10
19258;DHT22;9763;48.780;9.212;2024-02-28T01:51:39;11.70;71.20
19258;DHT22;9763;48.780;9.212;2024-02-28T01:55:05;11.70;71.20
19258;DHT22;9763;48.780;9.212;2024-02-28T01:58:31;11.70;71.20
19258;DHT22;9763;48.780;9.212;2024-02-28T02:01:55;11.70;71.00
19258;DHT22;9763;48.780;9.212;2024-02-28T02:05:18;11.60;71.00
19258;DHT22;9763;48.780;9.212;2024-02-28T02:08:42;11.60;70.90
19258;DHT22;9763;48.780;9.212;2024-02-28T02:12:06;11.50;70.90
19258;DHT22;9763;48.780;9.212;2024-02-28T02:15:32;11.50;70.90
19258;DHT22;9763;48.780;9.212;2024-02-28T02:18:56;11.40;70.90
19258;DHT22;9763;48.780;9.212;2024-02-28T02:22:20;11.30;71.00
19258;DHT22;9763;48.780;9.212;2024-02-28T02:25:48;11.30;71.10
19258;DHT22;9763;48.780;9.212;2024-02-28T02:29:12;11.30;71.10
19258;DHT22;9763;48.780;9.212;2024-02-28T02:32:36;11.30;71.20
19258;DHT22;9763;48.780;9.212;2024-02-28T02:36:00;11.30;71.20
19258;DHT22;9763;48.780;9.212;2024-02-28T02:39:24;11.30;71.10
19258;DHT22;9763;48.780;9.212;2024-02-28T02:42:49;11.30;70.80
19258;DHT22;9763;48.780;9.212;2024-02-28T02:46:12;11.30;70.60
19258;DHT22;9763;48.780;9.212;2024-02-28T02:49:36;11.30;70.90
19258;DHT22;9763;48.780;9.212;2024-02-28T02:52:59;11.30;71.10
19258;DHT22;9763;48.780;9.212;2024-02-28T02:56:23;11.20;71.20
19258;DHT22;9763;48.780;9.212;2024-02-28T02:59:48;11.30;71.30
19258;DHT22;9763;48.780;9.212;2024-02-28T03:03:12;11.30;71.40
19258;DHT22;9763;48.780;9.212;2024-02-28T03:06:35;11.30;71.40
19258;DHT22;9763;48.780;9.212;2024-02-28T03:09:59;11.30;71.40
19258;DHT22;9763;48.780;9.212;2024-02-28T03:13:23;11.30;71.40
19258;DHT22;9763;48.780;9.212;2024-02-28T03:16:48;11.30;71.40
19258;DHT22;9763;48.780;9.212;2024-02-28T03:20:11;11.30;71.40
19258;DHT22;9763;48.780;9.212;2024-02-28T03:23:36;11.30;71.30
19258;DHT22;9763;48.780;9.212;2024-02-28T03:26:59;11.30;71.20
19258;DHT22;9763;48.780;9.212;2024-02-28T03:30:23;11.20;71.20
19258;DHT22;9763;48.780;9.212;2024-02-28T03:33:48;11.10;71.00
19258;DHT22;9763;48.780;9.212;2024-02-28T03:37:12;11.10;71.10
19258;DHT22;9763;48.780;9.212;2024-02-28T03:40:36;11.00;71.00
19258;DHT22;9763;48.780;9.212;2024-02-28T03:44:00;11.00;71.30
19258;DHT22;9763;48.780;9.212;2024-02-28T03:47:23;11.00;71.60
19258;DHT22;9763;48.780;9.212;2024-02-28T03:50:48;11.00;71.70
19258;DHT22;9763;48.780;9.212;2024-02-28T03:54:12;11.00;71.60
19258;DHT22;9763;48.780;9.212;2024-02-28T03:57:36;11.00;71.50
19258;DHT22;9763;48.780;9.212;2024-02-28T04:00:59;11.00;71.20
19258;DHT22;9763;48.780;9.212;2024-02-28T04:04:23;10.90;71.10
19258;DHT22;9763;48.780;9.212;2024-02-28T04:07:48;10.90;71.30
19258;DHT22;9763;48.780;9.212;2024-02-28T04:11:12;10.80;71.30
19258;DHT22;9763;48.780;9.212;2024-02-28T04:14:37;10.80;71.40
19258;DHT22;9763;48.780;9.212;2024-02-28T04:18:01;10.80;71.50
19258;DHT22;9763;48.780;9.212;2024-02-28T04:21:25;10.80;71.70
19258;DHT22;9763;48.780;9.212;2024-02-28T04:24:50;10.80;71.70
19258;DHT22;9763;48.780;9.212;2024-02-28T04:28:13;10.90;71.70
19258;DHT22;9763;48.780;9.212;2024-02-28T04:31:38;10.90;71.60
19258;DHT22;9763;48.780;9.212;2024-02-28T04:35:01;10.90;71.40
19258;DHT22;9763;48.780;9.212;2024-02-28T04:38:25;10.80;71.20
19258;DHT22;9763;48.780;9.212;2024-02-28T04:41:50;10.80;71.20
19258;DHT22;9763;48.780;9.212;2024-02-28T04:45:14;10.70;71.10
19258;DHT22;9763;48.780;9.212;2024-02-28T04:48:37;10.60;71.10
19258;DHT22;9763;48.780;9.212;2024-02-28T04:52:01;10.50;71.10
19258;DHT22;9763;48.780;9.212;2024-02-28T04:55:25;10.40;71.10
19258;DHT22;9763;48.780;9.212;2024-02-28T04:58:50;10.40;71.40
19258;DHT22;9763;48.780;9.212;2024-02-28T05:02:14;10.40;71.50
19258;DHT22;9763;48.780;9.212;2024-02-28T05:05:39;10.40;71.50
19258;DHT22;9763;48.780;9.212;2024-02-28T05:09:02;10.40;71.60
19258;DHT22;9763;48.780;9.212;2024-02-28T05:12:26;10.40;71.60
19258;DHT22;9763;48.780;9.212;2024-02-28T05:15:52;10.40;71.60
19258;DHT22;9763;48.780;9.212;2024-02-28T05:19:15;10.40;71.50
19258;DHT22;9763;48.780;9.212;2024-02-28T05:22:40;10.30;71.50
19258;DHT22;9763;48.780;9.212;2024-02-28T05:26:04;10.30;71.60
19258;DHT22;9763;48.780;9.212;2024-02-28T05:29:29;10.30;71.50
19258;DHT22;9763;48.780;9.212;2024-02-28T05:32:54;10.20;71.30
19258;DHT22;9763;48.780;9.212;2024-02-28T05:36:17;10.20;71.50
19258;DHT22;9763;48.780;9.212;2024-02-28T05:39:42;10.40;71.90
19258;DHT22;9763;48.780;9.212;2024-02-28T05:43:05;10.20;71.90
19258;DHT22;9763;48.780;9.212;2024-02-28T05:46:29;10.20;72.00
19258;DHT22;9763;48.780;9.212;2024-02-28T05:49:54;10.30;72.20
19258;DHT22;9763;48.780;9.212;2024-02-28T05:53:20;10.30;72.10
19258;DHT22;9763;48.780;9.212;2024-02-28T05:56:44;10.40;72.10
19258;DHT22;9763;48.780;9.212;2024-02-28T06:00:08;10.60;72.20
19258;DHT22;9763;48.780;9.212;2024-02-28T06:03:32;10.40;71.90
19258;DHT22;9763;48.780;9.212;2024-02-28T06:06:58;10.50;72.00
19258;DHT22;9763;48.780;9.212;2024-02-28T06:10:22;10.50;71.80
19258;DHT22;9763;48.780;9.212;2024-02-28T06:13:46;10.50;71.70
19258;DHT22;9763;48.780;9.212;2024-02-28T06:17:11;10.50;71.80
19258;DHT22;9763;48.780;9.212;2024-02-28T06:20:35;10.60;71.90
19258;DHT22;9763;48.780;9.212;2024-02-28T06:24:01;10.60;71.80
19258;DHT22;9763;48.780;9.212;2024-02-28T06:27:25;10.60;71.70
19258;DHT22;9763;48.780;9.212;2024-02-28T06:30:49;10.60;71.70
19258;DHT22;9763;48.780;9.212;2024-02-28T06:34:12;10.60;71.70
19258;DHT22;9763;48.780;9.212;2024-02-28T06:37:36;10.60;71.70
19258;DHT22;9763;48.780;9.212;2024-02-28T06:41:02;10.90;72.00
19258;DHT22;9763;48.780;9.212;2024-02-28T06:44:25;10.70;71.90
19258;DHT22;9763;48.780;9.212;2024-02-28T06:47:49;10.60;71.70
19258;DHT22;9763;48.780;9.212;2024-02-28T06:51:13;10.70;71.70
19258;DHT22;9763;48.780;9.212;2024-02-28T06:54:39;10.70;71.80
19258;DHT22;9763;48.780;9.212;2024-02-28T06:58:04;10.70;71.80
19258;DHT22;9763;48.780;9.212;2024-02-28T07:01:27;10.70;71.80
19258;DHT22;9763;48.780;9.212;2024-02-28T07:04:51;10.60;71.70
19258;DHT22;9763;48.780;9.212;2024-02-28T07:08:15;10.70;71.90
19258;DHT22;9763;48.780;9.212;2024-02-28T07:11:39;10.70;72.00
19258;DHT22;9763;48.780;9.212;2024-02-28T07:15:04;10.70;71.70
19258;DHT22;9763;48.780;9.212;2024-02-28T07:18:28;10.70;71.70
19258;DHT22;9763;48.780;9.212;2024-02-28T07:21:52;10.60;71.80
19258;DHT22;9763;48.780;9.212;2024-02-28T07:25:16;10.60;71.90
19258;DHT22;9763;48.780;9.212;2024-02-28T07:28:44;10.60;72.00
19258;DHT22;9763;48.780;9.212;2024-02-28T07:32:12;10.70;72.20
19258;DHT22;9763;48.780;9.212;2024-02-28T07:35:44;10.70;72.00
19258;DHT22;9763;48.780;9.212;2024-02-28T07:39:08;10.60;71.90
19258;DHT22;9763;48.780;9.212;2024-02-28T07:42:34;10.70;72.20
19258;DHT22;9763;48.780;9.212;2024-02-28T07:45:58;10.70;72.30
19258;DHT22;9763;48.780;9.212;2024-02-28T07:49:23;10.70;72.30
19258;DHT22;9763;48.780;9.212;2024-02-28T07:52:49;10.70;72.30
19258;DHT22;9763;48.780;9.212;2024-02-28T07:56:15;10.80;72.40
19258;DHT22;9763;48.780;9.212;2024-02-28T07:59:40;10.80;72.50
19258;DHT22;9763;48.780;9.212;2024-02-28T08:03:04;10.80;72.50
19258;DHT22;9763;48.780;9.212;2024-02-28T08:06:29;10.80;72.40
19258;DHT22;9763;48.780;9.212;2024-02-28T08:09:53;10.90;72.20
19258;DHT22;9763;48.780;9.212;2024-02-28T08:13:17;10.90;72.30
19258;DHT22;9763;48.780;9.212;2024-02-28T08:16:42;10.90;72.30
19258;DHT22;9763;48.780;9.212;2024-02-28T08:20:07;10.90;72.30
19258;DHT22;9763;48.780;9.212;2024-02-28T08:23:33;10.90;72.40
19258;DHT22;9763;48.780;9.212;2024-02-28T08:26:58;11.00;72.50
19258;DHT22;9763;48.780;9.212;2024-02-28T08:30:23;11.00;72.50
19258;DHT22;9763;48.780;9.212;2024-02-28T08:33:48;11.00;72.50
19258;DHT22;9763;48.780;9.212;2024-02-28T08:37:12;11.00;72.30
19258;DHT22;9763;48.780;9.212;2024-02-28T08:40:38;11.00;72.40
19258;DHT22;9763;48.780;9.212;2024-02-28T08:44:02;11.10;72.60
19258;DHT22;9763;48.780;9.212;2024-02-28T08:47:28;11.10;72.60
19258;DHT22;9763;48.780;9.212;2024-02-28T08:50:52;11.10;72.60
19258;DHT22;9763;48.780;9.212;2024-02-28T08:54:16;11.10;72.60
19258;DHT22;9763;48.780;9.212;2024-02-28T08:57:41;11.10;72.50
19258;DHT22;9763;48.780;9.212;2024-02-28T09:01:05;11.10;71.80
19258;DHT22;9763;48.780;9.212;2024-02-28T09:04:29;11.10;71.90
19258;DHT22;9763;48.780;9.212;2024-02-28T09:07:52;11.10;72.90
19258;DHT22;9763;48.780;9.212;2024-02-28T09:11:17;10.90;72.30
19258;DHT22;9763;48.780;9.212;2024-02-28T09:14:43;11.00;72.50
19258;DHT22;9763;48.780;9.212;2024-02-28T09:18:07;10.90;72.50
19258;DHT22;9763;48.780;9.212;2024-02-28T09:21:31;11.00;72.80
19258;DHT22;9763;48.780;9.212;2024-02-28T09:24:55;11.00;72.90
19258;DHT22;9763;48.780;9.212;2024-02-28T09:28:18;11.00;73.10
19258;DHT22;9763;48.780;9.212;2024-02-28T09:31:44;11.10;73.30
19258;DHT22;9763;48.780;9.212;2024-02-28T09:35:08;11.10;73.00
19258;DHT22;9763;48.780;9.212;2024-02-28T09:38:32;11.10;72.90
19258;DHT22;9763;48.780;9.212;2024-02-28T09:41:57;11.20;73.20
19258;DHT22;9763;48.780;9.212;2024-02-28T09:45:21;11.20;73.30
19258;DHT22;9763;48.780;9.212;2024-02-28T09:48:49;11.30;73.40
19258;DHT22;9763;48.780;9.212;2024-02-28T09:52:14;11.40;73.50
19258;DHT22;9763;48.780;9.212;2024-02-28T09:55:38;11.40;73.50
19258;DHT22;9763;48.780;9.212;2024-02-28T09:59:02;11.50;73.60
19258;DHT22;9763;48.780;9.212;2024-02-28T10:02:28;11.60;73.50
19258;DHT22;9763;48.780;9.212;2024-02-28T10:05:54;11.70;73.40
19258;DHT22;9763;48.780;9.212;2024-02-28T10:09:17;11.70;73.00
19258;DHT22;9763;48.780;9.212;2024-02-28T10:12:41;11.80;72.90
19258;DHT22;9763;48.780;9.212;2024-02-28T10:16:06;11.80;72.70
19258;DHT22;9763;48.780;9.212;2024-02-28T10:19:30;11.70;72.40
19258;DHT22;9763;48.780;9.212;2024-02-28T10:22:55;11.70;72.40
19258;DHT22;9763;48.780;9.212;2024-02-28T10:26:19;11.70;72.10
19258;DHT22;9763;48.780;9.212;2024-02-28T10:29:42;11.60;72.10
19258;DHT22;9763;48.780;9.212;2024-02-28T10:33:11;11.60;72.80
19258;DHT22;9763;48.780;9.212;2024-02-28T10:36:36;11.50;72.00
19258;DHT22;9763;48.780;9.212;2024-02-28T10:40:02;11.50;72.10
19258;DHT22;9763;48.780;9.212;2024-02-28T10:43:28;11.50;72.20
19258;DHT22;9763;48.780;9.212;2024-02-28T10:46:53;11.50;72.30
19258;DHT22;9763;48.780;9.212;2024-02-28T10:50:17;11.70;72.70
19258;DHT22;9763;48.780;9.212;2024-02-28T10:53:42;11.70;72.70
19258;DHT22;9763;48.780;9.212;2024-02-28T10:57:11;11.60;72.40
19258;DHT22;9763;48.780;9.212;2024-02-28T11:00:38;11.60;72.30
19258;DHT22;9763;48.780;9.212;2024-02-28T11:04:04;11.70;72.50
19258;DHT22;9763;48.780;9.212;2024-02-28T11:07:30;11.90;72.50
19258;DHT22;9763;48.780;9.212;2024-02-28T11:10:55;11.70;72.10
19258;DHT22;9763;48.780;9.212;2024-02-28T11:14:21;11.80;72.30
19258;DHT22;9763;48.780;9.212;2024-02-28T11:17:48;11.80;72.00
19258;DHT22;9763;48.780;9.212;2024-02-28T11:21:15;11.80;72.00
19258;DHT22;9763;48.780;9.212;2024-02-28T11:24:38;11.80;71.70
19258;DHT22;9763;48.780;9.212;2024-02-28T11:28:04;11.80;72.00
19258;DHT22;9763;48.780;9.212;2024-02-28T11:31:30;11.80;71.60
19258;DHT22;9763;48.780;9.212;2024-02-28T11:34:54;11.80;71.40
19258;DHT22;9763;48.780;9.212;2024-02-28T11:38:18;11.70;71.70
19258;DHT22;9763;48.780;9.212;2024-02-28T11:41:42;11.70;72.00
19258;DHT22;9763;48.780;9.212;2024-02-28T11:45:10;11.70;71.90
19258;DHT22;9763;48.780;9.212;2024-02-28T11:48:35;11.80;72.00
19258;DHT22;9763;48.780;9.212;2024-02-28T11:51:59;11.80;72.00
19258;DHT22;9763;48.780;9.212;2024-02-28T11:55:24;11.80;72.00
19258;DHT22;9763;48.780;9.212;2024-02-28T11:58:51;11.90;72.00
19258;DHT22;9763;48.780;9.212;2024-02-28T12:02:15;11.90;71.80
19258;DHT22;9763;48.780;9.212;2024-02-28T12:05:42;11.90;71.80
19258;DHT22;9763;48.780;9.212;2024-02-28T12:09:08;11.90;71.80
19258;DHT22;9763;48.780;9.212;2024-02-28T12:12:38;12.00;71.80
19258;DHT22;9763;48.780;9.212;2024-02-28T12:16:03;12.00;71.90
19258;DHT22;9763;48.780;9.212;2024-02-28T12:19:27;12.00;71.70
19258;DHT22;9763;48.780;9.212;2024-02-28T12:22:52;11.90;71.60
19258;DHT22;9763;48.780;9.212;2024-02-28T12:26:17;11.90;71.80
19258;DHT22;9763;48.780;9.212;2024-02-28T12:29:41;11.90;71.50
19258;DHT22;9763;48.780;9.212;2024-02-28T12:33:04;11.90;71.30
19258;DHT22;9763;48.780;9.212;2024-02-28T12:36:28;11.90;71.30
19258;DHT22;9763;48.780;9.212;2024-02-28T12:39:54;11.80;71.60
19258;DHT22;9763;48.780;9.212;2024-02-28T12:43:18;11.80;71.60
19258;DHT22;9763;48.780;9.212;2024-02-28T12:46:41;11.90;71.50
19258;DHT22;9763;48.780;9.212;2024-02-28T12:50:06;11.80;71.30
19258;DHT22;9763;48.780;9.212;2024-02-28T12:53:31;11.80;71.10
19258;DHT22;9763;48.780;9.212;2024-02-28T12:56:56;11.80;71.40
19258;DHT22;9763;48.780;9.212;2024-02-28T13:00:21;11.80;71.30
19258;DHT22;9763;48.780;9.212;2024-02-28T13:03:45;11.70;71.00
19258;DHT22;9763;48.780;9.212;2024-02-28T13:07:08;11.60;70.90
19258;DHT22;9763;48.780;9.212;2024-02-28T13:10:32;11.60;71.00
19258;DHT22;9763;48.780;9.212;2024-02-28T13:13:59;11.50;71.20
19258;DHT22;9763;48.780;9.212;2024-02-28T13:17:24;11.50;71.30
19258;DHT22;9763;48.780;9.212;2024-02-28T13:20:48;11.50;71.50
19258;DHT22;9763;48.780;9.212;2024-02-28T13:24:12;11.60;71.70
19258;DHT22;9763;48.780;9.212;2024-02-28T13:27:37;11.60;71.40
19258;DHT22;9763;48.780;9.212;2024-02-28T13:31:03;11.60;71.40
19258;DHT22;9763;48.780;9.212;2024-02-28T13:34:27;11.60;71.00
19258;DHT22;9763;48.780;9.212;2024-02-28T13:37:51;11.60;71.10
19258;DHT22;9763;48.780;9.212;2024-02-28T13:41:15;11.60;71.20
19258;DHT22;9763;48.780;9.212;2024-02-28T13:44:39;11.60;71.10
19258;DHT22;9763;48.780;9.212;2024-02-28T13:48:05;11.50;70.90
19258;DHT22;9763;48.780;9.212;2024-02-28T13:51:38;11.50;70.60
19258;DHT22;9763;48.780;9.212;2024-02-28T13:55:04;11.50;70.90
19258;DHT22;9763;48.780;9.212;2024-02-28T13:58:30;11.40;71.20
19258;DHT22;9763;48.780;9.212;2024-02-28T14:02:03;11.50;71.40
19258;DHT22;9763;48.780;9.212;2024-02-28T14:05:28;11.50;71.30
19258;DHT22;9763;48.780;9.212;2024-02-28T14:08:52;11.50;71.30
19258;DHT22;9763;48.780;9.212;2024-02-28T14:12:16;11.50;71.20
19258;DHT22;9763;48.780;9.212;2024-02-28T14:15:39;11.50;71.20
19258;DHT22;9763;48.780;9.212;2024-02-28T14:19:03;11.50;71.20
19258;DHT22;9763;48.780;9.212;2024-02-28T14:22:28;11.50;72.00
19258;DHT22;9763;48.780;9.212;2024-02-28T14:25:51;11.50;71.30
19258;DHT22;9763;48.780;9.212;2024-02-28T14:29:15;11.50;71.40
19258;DHT22;9763;48.780;9.212;2024-02-28T14:32:39;11.50;71.30
19258;DHT22;9763;48.780;9.212;2024-02-28T14:36:05;11.60;71.50
19258;DHT22;9763;48.780;9.212;2024-02-28T14:39:30;11.60;71.30
19258;DHT22;9763;48.780;9.212;2024-02-28T14:42:53;11.60;71.20
19258;DHT22;9763;48.780;9.212;2024-02-28T14:46:17;11.70;71.10
19258;DHT22;9763;48.780;9.212;2024-02-28T14:49:43;11.70;71.10
19258;DHT22;9763;48.780;9.212;2024-02-28T14:53:07;11.70;71.00
19258;DHT22;9763;48.780;9.212;2024-02-28T14:56:33;11.60;71.00
19258;DHT22;9763;48.780;9.212;2024-02-28T14:59:56;11.60;70.90
19258;DHT22;9763;48.780;9.212;2024-02-28T15:03:20;11.60;71.00
19258;DHT22;9763;48.780;9.212;2024-02-28T15:06:43;11.60;71.00
19258;DHT22;9763;48.780;9.212;2024-02-28T15:10:07;11.50;71.00
19258;DHT22;9763;48.780;9.212;2024-02-28T15:13:33;11.50;70.90
19258;DHT22;9763;48.780;9.212;2024-02-28T15:16:56;11.50;70.60
19258;DHT22;9763;48.780;9.212;2024-02-28T15:20:20;11.40;70.70
19258;DHT22;9763;48.780;9.212;2024-02-28T15:23:45;11.40;70.80
19258;DHT22;9763;48.780;9.212;2024-02-28T15:27:10;11.30;70.40
19258;DHT22;9763;48.780;9.212;2024-02-28T15:30:35;11.30;70.60
19258;DHT22;9763;48.780;9.212;2024-02-28T15:33:59;11.20;70.80
19258;DHT22;9763;48.780;9.212;2024-02-28T15:37:22;11.20;70.90
19258;DHT22;9763;48.780;9.212;2024-02-28T15:40:46;11.20;70.90
19258;DHT22;9763;48.780;9.212;2024-02-28T15:44:10;11.10;70.70
19258;DHT22;9763;48.780;9.212;2024-02-28T15:47:35;11.10;70.70
19258;DHT22;9763;48.780;9.212;2024-02-28T15:50:58;11.10;70.80
19258;DHT22;9763;48.780;9.212;2024-02-28T15:54:22;11.10;71.00
19258;DHT22;9763;48.780;9.212;2024-02-28T15:57:46;11.00;70.60
19258;DHT22;9763;48.780;9.212;2024-02-28T16:01:10;11.00;70.80
19258;DHT22;9763;48.780;9.212;2024-02-28T16:04:35;11.10;71.00
19258;DHT22;9763;48.780;9.212;2024-02-28T16:08:00;11.00;70.90
19258;DHT22;9763;48.780;9.212;2024-02-28T16:11:25;11.00;71.00
19258;DHT22;9763;48.780;9.212;2024-02-28T16:14:49;11.00;70.80
19258;DHT22;9763;48.780;9.212;2024-02-28T16:18:13;11.10;70.90
19258;DHT22;9763;48.780;9.212;2024-02-28T16:21:38;11.10;70.50
19258;DHT22;9763;48.780;9.212;2024-02-28T16:25:02;11.00;70.20
19258;DHT22;9763;48.780;9.212;2024-02-28T16:28:26;11.00;70.60
19258;DHT22;9763;48.780;9.212;2024-02-28T16:31:52;11.00;70.60
19258;DHT22;9763;48.780;9.212;2024-02-28T16:35:16;11.00;70.40
19258;DHT22;9763;48.780;9.212;2024-02-28T16:38:41;10.90;70.40
19258;DHT22;9763;48.780;9.212;2024-02-28T16:42:07;10.90;70.60
19258;DHT22;9763;48.780;9.212;2024-02-28T16:45:31;10.90;70.70
19258;DHT22;9763;48.780;9.212;2024-02-28T16:48:55;11.00;70.70
19258;DHT22;9763;48.780;9.212;2024-02-28T16:52:18;10.90;70.50
19258;DHT22;9763;48.780;9.212;2024-02-28T16:55:43;10.90;70.40
19258;DHT22;9763;48.780;9.212;2024-02-28T16:59:08;10.90;70.50
19258;DHT22;9763;48.780;9.212;2024-02-28T17:02:32;10.90;70.60
19258;DHT22;9763;48.780;9.212;2024-02-28T17:05:55;10.90;70.40
19258;DHT22;9763;48.780;9.212;2024-02-28T17:09:19;10.90;70.50
19258;DHT22;9763;48.780;9.212;2024-02-28T17:12:44;10.90;70.60
19258;DHT22;9763;48.780;9.212;2024-02-28T17:16:07;10.90;70.60
19258;DHT22;9763;48.780;9.212;2024-02-28T17:19:31;10.90;70.60
19258;DHT22;9763;48.780;9.212;2024-02-28T17:22:54;10.90;70.70
19258;DHT22;9763;48.780;9.212;2024-02-28T17:26:18;10.90;70.60
19258;DHT22;9763;48.780;9.212;2024-02-28T17:29:43;10.90;70.70
19258;DHT22;9763;48.780;9.212;2024-02-28T17:33:07;11.00;70.70
19258;DHT22;9763;48.780;9.212;2024-02-28T17:36:30;11.00;70.70
19258;DHT22;9763;48.780;9.212;2024-02-28T17:39:55;11.00;70.60
19258;DHT22;9763;48.780;9.212;2024-02-28T17:43:18;11.00;70.50
19258;DHT22;9763;48.780;9.212;2024-02-28T17:46:43;11.00;70.50
19258;DHT22;9763;48.780;9.212;2024-02-28T17:50:07;11.00;70.40
19258;DHT22;9763;48.780;9.212;2024-02-28T17:53:32;11.00;70.50
19258;DHT22;9763;48.780;9.212;2024-02-28T17:56:56;11.00;70.50
19258;DHT22;9763;48.780;9.212;2024-02-28T18:00:20;11.00;70.50
19258;DHT22;9763;48.780;9.212;2024-02-28T18:03:50;10.90;70.10
19258;DHT22;9763;48.780;9.212;2024-02-28T18:07:13;11.00;70.40
19258;DHT22;9763;48.780;9.212;2024-02-28T18:10:38;11.00;70.30
19258;DHT22;9763;48.780;9.212;2024-02-28T18:14:02;11.10;70.50
19258;DHT22;9763;48.780;9.212;2024-02-28T18:17:25;10.90;70.20
19258;DHT22;9763;48.780;9.212;2024-02-28T18:20:51;11.00;70.40
19258;DHT22;9763;48.780;9.212;2024-02-28T18:24:16;10.90;70.40
19258;DHT22;9763;48.780;9.212;2024-02-28T18:27:39;10.90;70.40
19258;DHT22;9763;48.780;9.212;2024-02-28T18:31:03;10.90;70.40
19258;DHT22;9763;48.780;9.212;2024-02-28T18:34:27;10.90;70.40
19258;DHT22;9763;48.780;9.212;2024-02-28T18:37:52;10.90;70.40
19258;DHT22;9763;48.780;9.212;2024-02-28T18:41:17;10.90;70.30
19258;DHT22;9763;48.780;9.212;2024-02-28T18:44:41;10.90;70.30
19258;DHT22;9763;48.780;9.212;2024-02-28T18:48:05;10.80;70.30
19258;DHT22;9763;48.780;9.212;2024-02-28T18:51:29;10.80;71.10
19258;DHT22;9763;48.780;9.212;2024-02-28T18:54:54;10.90;70.50
19258;DHT22;9763;48.780;9.212;2024-02-28T18:58:18;10.90;70.40
19258;DHT22;9763;48.780;9.212;2024-02-28T19:01:41;10.90;70.40
19258;DHT22;9763;48.780;9.212;2024-02-28T19:05:08;10.90;70.40
19258;DHT22;9763;48.780;9.212;2024-02-28T19:08:36;10.90;70.50
19258;DHT22;9763;48.780;9.212;2024-02-28T19:12:01;10.90;70.40
19258;DHT22;9763;48.780;9.212;2024-02-28T19:15:25;10.90;70.40
19258;DHT22;9763;48.780;9.212;2024-02-28T19:18:48;10.90;70.30
19258;DHT22;9763;48.780;9.212;2024-02-28T19:22:12;10.90;70.40
19258;DHT22;9763;48.780;9.212;2024-02-28T19:25:36;10.90;70.40
19258;DHT22;9763;48.780;9.212;2024-02-28T19:29:00;10.80;70.30
19258;DHT22;9763;48.780;9.212;2024-02-28T19:32:25;10.90;70.50
19258;DHT22;9763;48.780;9.212;2024-02-28T19:35:48;10.90;70.50
19258;DHT22;9763;48.780;9.212;2024-02-28T19:39:13;10.90;70.40
19258;DHT22;9763;48.780;9.212;2024-02-28T19:42:37;10.90;70.40
19258;DHT22;9763;48.780;9.212;2024-02-28T19:46:03;10.90;70.30
19258;DHT22;9763;48.780;9.212;2024-02-28T19:49:27;10.90;70.30
19258;DHT22;9763;48.780;9.212;2024-02-28T19:52:52;10.80;70.20
19258;DHT22;9763;48.780;9.212;2024-02-28T19:56:15;10.80;70.30
19258;DHT22;9763;48.780;9.212;2024-02-28T19:59:39;10.80;70.30
19258;DHT22;9763;48.780;9.212;2024-02-28T20:03:04;10.80;70.30
19258;DHT22;9763;48.780;9.212;2024-02-28T20:06:28;10.80;70.20
19258;DHT22;9763;48.780;9.212;2024-02-28T20:09:51;10.80;70.20
19258;DHT22;9763;48.780;9.212;2024-02-28T20:13:15;10.80;70.30
19258;DHT22;9763;48.780;9.212;2024-02-28T20:16:39;10.80;70.10
19258;DHT22;9763;48.780;9.212;2024-02-28T20:20:04;10.80;70.30
19258;DHT22;9763;48.780;9.212;2024-02-28T20:23:29;10.80;70.20
19258;DHT22;9763;48.780;9.212;2024-02-28T20:26:52;10.80;70.40
19258;DHT22;9763;48.780;9.212;2024-02-28T20:30:16;10.80;70.20
19258;DHT22;9763;48.780;9.212;2024-02-28T20:33:40;10.70;70.10
19258;DHT22;9763;48.780;9.212;2024-02-28T20:37:07;10.90;70.20
19258;DHT22;9763;48.780;9.212;2024-02-28T20:40:31;10.70;70.00
19258;DHT22;9763;48.780;9.212;2024-02-28T20:43:54;10.70;70.00
19258;DHT22;9763;48.780;9.212;2024-02-28T20:47:21;10.60;69.80
19258;DHT22;9763;48.780;9.212;2024-02-28T20:50:45;10.60;70.00
19258;DHT22;9763;48.780;9.212;2024-02-28T20:54:11;10.60;70.10
19258;DHT22;9763;48.780;9.212;2024-02-28T20:57:36;11.10;70.50
19258;DHT22;9763;48.780;9.212;2024-02-28T21:01:01;10.50;70.00
19258;DHT22;9763;48.780;9.212;2024-02-28T21:04:26;11.10;70.40
19258;DHT22;9763;48.780;9.212;2024-02-28T21:07:50;10.50;69.80
19258;DHT22;9763;48.780;9.212;2024-02-28T21:11:16;10.50;69.80
19258;DHT22;9763;48.780;9.212;2024-02-28T21:14:40;10.40;69.60
19258;DHT22;9763;48.780;9.212;2024-02-28T21:18:04;10.40;69.50
19258;DHT22;9763;48.780;9.212;2024-02-28T21:21:28;10.30;69.40
19258;DHT22;9763;48.780;9.212;2024-02-28T21:24:52;10.30;69.20
19258;DHT22;9763;48.780;9.212;2024-02-28T21:28:17;10.20;69.30
19258;DHT22;9763;48.780;9.212;2024-02-28T21:31:42;10.10;69.20
19258;DHT22;9763;48.780;9.212;2024-02-28T21:35:06;10.00;69.00
19258;DHT22;9763;48.780;9.212;2024-02-28T21:38:29;9.90;70.40
19258;DHT22;9763;48.780;9.212;2024-02-28T21:41:53;9.80;70.40
19258;DHT22;9763;48.780;9.212;2024-02-28T21:45:18;9.80;70.50
19258;DHT22;9763;48.780;9.212;2024-02-28T21:48:42;9.70;70.40
19258;DHT22;9763;48.780;9.212;2024-02-28T21:52:05;9.60;70.20
19258;DHT22;9763;48.780;9.212;2024-02-28T21:55:29;9.60;70.00